Oklahoma City, OK

1:05 PM CDT on May 22, 2015 (GMT -0500)
Crestwood | | Change Station
CLOSE
Current Station
Personal Weather Station
Location: Oklahoma City, OK
Elevation: 1257 ft
Nearby Weather Stations
Active Advisory: Flash Flood Watch

Elev 1257 ft 35.49 °N, 97.56 °W | Updated 6 seconds ago

Rain
Rain
57.2 °F
Feels Like 57.2 °F
N
0.0
Wind Variable Wind from ESE
Gusts 0.0 mph

Today
High -- | Low -- °F
--% Chance of Precip.
Yesterday
High -- | Low -- °F
Precip. -- in
6:20 AM 8:33 PM
Waxing Crescent, 23% visible
Pressure 30.17 in
Visibility 10.0 miles
Clouds Overcast 800 ft
Dew Point 45 °F
Humidity 63%
Rainfall 0.43 in
Snow Depth Not available.
UV 4 out of 12
Pollen .80 out of 12
Air Quality Not available.
Flu Activity Local Activity
METAR KPWA 221753Z 15013KT 10SM OVC008 14/13 A3018 RMK AO2 RAB1658E44 CIG 005V013 SLP214 P0001 60033 T01440128 10144 20117 58004

More Conditions Fewer Conditions

Pressure 30.17 in
Visibility 10.0 miles
Clouds Overcast 800 ft
Dew Point 45 °F
Humidity 63%
Rainfall 0.43 in
Snow Depth Not available.
UV 4 out of 12
Pollen .80 out of 12
Air Quality Not available.
Flu Activity Local Activity
METAR KPWA 221753Z 15013KT 10SM OVC008 14/13 A3018 RMK AO2 RAB1658E44 CIG 005V013 SLP214 P0001 60033 T01440128 10144 20117 58004

More Conditions Fewer Conditions

10-Day Weather Forecast

Almanac

Astronomy

May. 22, 2015 Rise Set
Actual Time
Civil Twilight
Nautical Twilight
Astronomical Twilight
Moon
Length of Visible Light
Length of Day
Tomorrow will be .
, % of the Moon is Illuminated

Today's Extremes

State Highs State Lows

Community

WunderPhotos

Upload Photos

1,823,272 photos uploaded!

WunderBlogs® & News

Nearby

Air Quality

  Air Quality AQ Index Pollutant
Not available.

Snow Depth

Station Depth Elevation

Earthquake Activity

City Distance Mag. Time & Date
Minimum magnitude displayed is 2.5.

Coastal Water Temperatures

Place Temperature

Stations

Nearby Weather Stations

Station Location Temp. Windchill Dew Point Humidity Wind Precip. Elev Updated Type
                   
Flash Flood Watch
Statement as of 3:47 AM CDT on May 22, 2015

... Flash Flood Watch remains in effect through Monday morning...

The Flash Flood Watch continues for

* all of central... southern... and southwestern Oklahoma... and all
of western North Texas.

* Through Monday morning

* up to an inch of rainfall possible through midnight tonight

* Saturday and Sunday 2 to 5 inches of rainfall expected with
locally higher amounts

Precautionary/preparedness actions...

Monitor weather forecasts and information. Avoid travel in
flooded areas... and make plans to get to higher ground if
flooding develops or worsens in your area.



Mbs